createdAt,value
2022-09-28T00:01:22.857Z,68.60
2022-09-28T00:03:52.216Z,72.18
2022-09-28T00:06:22.301Z,77.10
2022-09-28T00:08:50.407Z,70.03
2022-09-28T00:11:20.142Z,77.28
2022-09-28T00:13:52.441Z,74.28
2022-09-28T00:16:22.552Z,70.40
2022-09-28T00:18:51.346Z,79.95
2022-09-28T00:21:22.233Z,76.15
2022-09-28T00:24:15.675Z,95.32
2022-09-28T00:26:52.759Z,80.13
2022-09-28T00:29:28.337Z,74.88
2022-09-28T00:32:00.180Z,75.55
2022-09-28T00:34:32.248Z,75.93
2022-09-28T00:37:00.610Z,78.65
2022-09-28T00:39:28.058Z,71.30
2022-09-28T00:41:56.101Z,71.82
2022-09-28T00:44:26.483Z,81.63
2022-09-28T00:47:19.913Z,74.88
2022-09-28T00:50:33.760Z,88.68
2022-09-28T00:53:12.013Z,99.32
2022-09-28T00:55:43.941Z,83.38
2022-09-28T00:58:14.168Z,77.43
2022-09-28T01:00:41.996Z,81.60
2022-09-28T01:03:10.311Z,71.93
2022-09-28T01:05:47.191Z,76.97
2022-09-28T01:08:15.543Z,70.30
2022-09-28T01:10:46.307Z,70.32
2022-09-28T01:13:14.260Z,180.32
2022-09-28T01:15:51.236Z,75.10
2022-09-28T01:18:44.593Z,77.45
2022-09-28T01:21:17.511Z,88.18
2022-09-28T01:24:03.152Z,95.25
2022-09-28T01:26:49.460Z,70.63
2022-09-28T01:29:22.670Z,71.18
2022-09-28T01:31:58.834Z,71.07
2022-09-28T01:34:34.701Z,65.65
2022-09-28T01:37:05.342Z,73.13
2022-09-28T01:39:45.847Z,74.05
2022-09-28T01:42:19.177Z,68.20
2022-09-28T01:44:48.956Z,104.05
2022-09-28T01:47:21.398Z,78.90
2022-09-28T01:49:54.225Z,71.28
2022-09-28T01:52:40.655Z,77.55
2022-09-28T01:55:12.506Z,78.47
2022-09-28T01:57:43.289Z,82.43
2022-09-28T02:00:13.613Z,76.53
2022-09-28T02:03:03.456Z,69.18
2022-09-28T02:05:33.500Z,75.07
2022-09-28T02:08:13.015Z,83.57
2022-09-28T02:10:44.586Z,78.90
2022-09-28T02:13:34.199Z,74.03
2022-09-28T02:16:05.879Z,75.18
2022-09-28T02:18:33.652Z,77.40
2022-09-28T02:21:29.773Z,72.22
2022-09-28T02:24:03.679Z,74.38
2022-09-28T02:26:34.855Z,74.20
2022-09-28T02:29:02.105Z,72.13
2022-09-28T02:31:29.899Z,77.50
2022-09-28T02:33:58.362Z,70.50
2022-09-28T02:36:26.808Z,71.95
2022-09-28T02:38:55.236Z,67.10
2022-09-28T02:41:40.077Z,63.38
2022-09-28T02:44:19.476Z,70.90
2022-09-28T02:46:49.444Z,65.53
2022-09-28T02:49:38.713Z,64.22
2022-09-28T02:52:33.865Z,70.40
2022-09-28T02:55:13.666Z,63.72
2022-09-28T02:58:05.392Z,65.13
2022-09-28T03:00:41.284Z,64.22
2022-09-28T03:03:10.524Z,57.90
2022-09-28T03:05:53.089Z,63.00
2022-09-28T03:08:35.783Z,62.92
2022-09-28T03:11:07.951Z,55.90
2022-09-28T03:13:36.330Z,61.95
2022-09-28T03:16:12.666Z,64.63
2022-09-28T03:18:40.516Z,66.97
2022-09-28T03:21:08.258Z,62.90
2022-09-28T03:23:36.068Z,79.22
2022-09-28T03:26:03.460Z,91.18
2022-09-28T03:28:30.715Z,61.90
2022-09-28T03:30:58.335Z,65.38
2022-09-28T03:33:25.680Z,59.63
2022-09-28T03:35:53.454Z,62.22
2022-09-28T03:38:21.317Z,59.00
2022-09-28T03:40:55.773Z,57.78
2022-09-28T03:43:26.346Z,55.83
2022-09-28T03:46:04.222Z,62.88
2022-09-28T03:48:36.144Z,65.70
2022-09-28T03:51:05.772Z,59.88
2022-09-28T03:53:33.718Z,59.22
2022-09-28T03:56:12.308Z,62.83
2022-09-28T03:58:40.984Z,61.20
2022-09-28T04:01:16.539Z,62.00
2022-09-28T04:03:45.369Z,57.20
2022-09-28T04:06:13.375Z,61.67
2022-09-28T04:08:43.101Z,61.70
2022-09-28T04:11:10.971Z,62.50
2022-09-28T04:13:38.298Z,75.05
2022-09-28T04:16:06.069Z,66.43
2022-09-28T04:18:35.392Z,62.00
2022-09-28T04:21:06.882Z,57.88
2022-09-28T04:23:35.575Z,60.30
2022-09-28T04:26:04.826Z,61.38
2022-09-28T04:28:52.380Z,64.10
2022-09-28T04:31:22.297Z,59.95
2022-09-28T04:33:50.028Z,59.40
2022-09-28T04:36:19.729Z,57.17
2022-09-28T04:38:53.109Z,62.60
2022-09-28T04:41:24.519Z,56.25
2022-09-28T04:43:52.141Z,58.83
2022-09-28T04:46:19.950Z,65.50
2022-09-28T04:48:47.329Z,55.15
2022-09-28T04:51:15.319Z,53.22
2022-09-28T04:53:42.642Z,51.53
2022-09-28T04:56:12.712Z,48.40
2022-09-28T04:58:40.362Z,42.38
2022-09-28T05:01:12.853Z,50.13
2022-09-28T05:03:40.284Z,45.63
2022-09-28T05:06:08.081Z,59.40
2022-09-28T05:08:36.269Z,43.85
2022-09-28T05:11:06.542Z,46.08
2022-09-28T05:13:40.397Z,47.40
2022-09-28T05:16:08.809Z,46.95
2022-09-28T05:18:36.466Z,49.78
2022-09-28T05:21:04.642Z,43.42
2022-09-28T05:23:34.311Z,44.92
2022-09-28T05:26:02.511Z,47.92
2022-09-28T05:28:32.949Z,48.67
2022-09-28T05:31:03.408Z,46.08
2022-09-28T05:33:33.760Z,51.67
2022-09-28T05:36:01.875Z,51.22
2022-09-28T05:38:30.492Z,56.65
2022-09-28T05:40:58.007Z,52.72
2022-09-28T05:43:25.449Z,75.22
2022-09-28T05:45:55.521Z,73.43
2022-09-28T05:48:23.559Z,79.00
2022-09-28T05:50:54.220Z,71.45
2022-09-28T05:53:21.482Z,72.88
2022-09-28T05:55:48.693Z,77.95
2022-09-28T05:58:17.128Z,75.25
2022-09-28T06:00:44.700Z,84.38
2022-09-28T06:03:13.316Z,86.40
2022-09-28T06:05:41.007Z,78.22
2022-09-28T06:08:10.619Z,79.63
2022-09-28T06:10:39.434Z,73.85
2022-09-28T06:13:07.244Z,73.55
2022-09-28T06:15:36.328Z,68.47
2022-09-28T06:18:10.068Z,74.63
2022-09-28T06:20:41.088Z,73.80
2022-09-28T06:23:09.987Z,73.47
2022-09-28T06:25:37.703Z,71.38
2022-09-28T06:28:11.380Z,59.60
2022-09-28T06:30:39.232Z,64.57
2022-09-28T06:33:08.382Z,63.03
2022-09-28T06:35:36.034Z,61.67
2022-09-28T06:38:03.516Z,67.70
2022-09-28T06:40:31.285Z,67.70
2022-09-28T06:43:06.989Z,69.53
2022-09-28T06:45:34.696Z,77.45
2022-09-28T06:48:02.283Z,76.97
2022-09-28T06:50:32.778Z,76.63
2022-09-28T06:53:01.046Z,73.30
2022-09-28T06:55:29.382Z,73.63
2022-09-28T06:58:04.913Z,75.93
2022-09-28T07:00:34.954Z,60.72
2022-09-28T07:03:06.266Z,60.60
2022-09-28T07:05:36.874Z,75.78
2022-09-28T07:08:04.964Z,57.67
2022-09-28T07:10:33.644Z,68.13
2022-09-28T07:13:04.167Z,59.10
2022-09-28T07:15:32.423Z,57.30
2022-09-28T07:18:03.490Z,53.92
2022-09-28T07:20:49.938Z,59.92
2022-09-28T07:23:19.990Z,65.75
2022-09-28T07:25:50.272Z,58.42
2022-09-28T07:28:17.557Z,62.20
2022-09-28T07:30:45.811Z,60.50
2022-09-28T07:33:15.972Z,58.78
2022-09-28T07:35:51.288Z,62.13
2022-09-28T07:38:19.087Z,61.40
2022-09-28T07:41:05.677Z,65.78
2022-09-28T07:43:35.407Z,68.60
2022-09-28T07:46:02.888Z,64.80
2022-09-28T07:48:37.823Z,57.88
2022-09-28T07:51:09.222Z,67.38
2022-09-28T07:53:38.317Z,54.67
2022-09-28T07:56:11.744Z,54.05
2022-09-28T07:58:39.744Z,54.50
2022-09-28T08:01:11.246Z,47.20
2022-09-28T08:03:39.225Z,52.33
2022-09-28T08:06:11.373Z,47.42
2022-09-28T08:08:44.624Z,53.60
2022-09-28T08:11:16.569Z,57.53
2022-09-28T08:13:45.570Z,56.78
2022-09-28T08:16:13.675Z,48.70
2022-09-28T08:18:43.570Z,55.55
2022-09-28T08:21:30.124Z,55.13
2022-09-28T08:23:59.076Z,57.30
2022-09-28T08:26:26.821Z,53.75
2022-09-28T08:28:54.249Z,48.90
2022-09-28T08:31:21.532Z,46.17
2022-09-28T08:33:53.041Z,50.63
2022-09-28T08:36:24.001Z,47.92
2022-09-28T08:38:51.557Z,45.83
2022-09-28T08:41:27.593Z,39.38
2022-09-28T08:43:57.723Z,43.13
2022-09-28T08:46:31.234Z,42.10
2022-09-28T08:49:26.359Z,40.72
2022-09-28T08:51:55.144Z,44.83
2022-09-28T08:54:59.837Z,45.08
2022-09-28T08:57:53.623Z,43.25
2022-09-28T09:00:35.359Z,41.90
2022-09-28T09:03:06.050Z,37.58
2022-09-28T09:05:58.205Z,42.85
2022-09-28T09:08:49.262Z,40.70
2022-09-28T09:11:35.250Z,39.45
2022-09-28T09:14:21.029Z,37.58
2022-09-28T09:17:04.105Z,48.10
2022-09-28T09:19:33.265Z,37.70
2022-09-28T09:22:11.448Z,37.85
2022-09-28T09:24:49.899Z,28.98
2022-09-28T09:27:38.098Z,40.13
2022-09-28T09:30:15.003Z,30.08
2022-09-28T09:33:05.630Z,32.85
2022-09-28T09:35:52.711Z,32.97
2022-09-28T09:38:52.901Z,33.88
2022-09-28T09:41:52.142Z,34.33
2022-09-28T09:45:01.852Z,36.47
2022-09-28T09:47:43.000Z,33.33
2022-09-28T09:50:29.948Z,34.78
2022-09-28T09:53:13.224Z,32.00
2022-09-28T09:55:44.672Z,32.10
2022-09-28T09:58:23.921Z,39.80
2022-09-28T10:00:52.871Z,34.78
2022-09-28T10:03:30.716Z,35.10
2022-09-28T10:06:03.920Z,36.38
2022-09-28T10:08:34.786Z,35.92
2022-09-28T10:11:10.822Z,38.53
2022-09-28T10:13:39.134Z,34.83
2022-09-28T10:16:07.812Z,39.25
2022-09-28T10:18:38.888Z,40.65
2022-09-28T10:21:06.312Z,38.53
2022-09-28T10:23:36.731Z,40.95
2022-09-28T10:26:28.704Z,38.53
2022-09-28T10:28:59.896Z,39.83
2022-09-28T10:31:38.268Z,40.83
2022-09-28T10:34:07.652Z,42.20
2022-09-28T10:36:46.373Z,40.42
2022-09-28T10:39:47.503Z,38.42
2022-09-28T10:42:21.279Z,37.53
2022-09-28T10:45:05.232Z,36.15
2022-09-28T10:47:33.653Z,38.65
2022-09-28T10:50:01.576Z,39.55
2022-09-28T10:52:32.082Z,37.58
2022-09-28T10:55:01.809Z,38.20
2022-09-28T10:57:37.240Z,35.20
2022-09-28T11:00:07.217Z,42.42
2022-09-28T11:02:37.866Z,41.20
2022-09-28T11:05:07.008Z,45.80
2022-09-28T11:07:45.932Z,38.85
2022-09-28T11:10:39.418Z,41.13
2022-09-28T11:13:09.604Z,37.88
2022-09-28T11:15:42.170Z,37.47
2022-09-28T11:18:31.538Z,38.38
2022-09-28T11:21:15.903Z,38.55
2022-09-28T11:23:55.990Z,41.60
2022-09-28T11:26:23.944Z,39.85
2022-09-28T11:28:52.871Z,37.80
2022-09-28T11:31:29.544Z,39.75
2022-09-28T11:34:13.201Z,37.45
2022-09-28T11:37:10.650Z,36.40
2022-09-28T11:39:37.885Z,34.28
2022-09-28T11:42:16.330Z,34.88
2022-09-28T11:44:48.718Z,38.95
2022-09-28T11:47:26.496Z,48.15
2022-09-28T11:50:11.994Z,33.97
2022-09-28T11:52:49.167Z,33.85
2022-09-28T11:55:34.857Z,35.05
2022-09-28T11:58:14.396Z,32.70
2022-09-28T12:00:46.609Z,36.15
2022-09-28T12:03:22.187Z,36.33
2022-09-28T12:05:52.756Z,36.65
2022-09-28T12:08:31.936Z,36.63
2022-09-28T12:11:02.902Z,33.25
2022-09-28T12:13:50.271Z,35.88
2022-09-28T12:17:00.964Z,37.53
2022-09-28T12:19:33.884Z,40.50
2022-09-28T12:22:07.648Z,36.47
2022-09-28T12:24:40.163Z,34.35
2022-09-28T12:27:10.373Z,35.60
2022-09-28T12:29:51.255Z,34.08
2022-09-28T12:32:31.012Z,34.83
2022-09-28T12:34:58.577Z,33.67
2022-09-28T12:37:58.982Z,38.00
2022-09-28T12:40:41.719Z,37.22
2022-09-28T12:43:40.670Z,33.13
2022-09-28T12:46:26.469Z,33.63
2022-09-28T12:49:51.564Z,31.10
2022-09-28T12:51:54.030Z,30.92
2022-09-28T12:54:34.633Z,39.08
2022-09-28T12:57:08.081Z,31.52
2022-09-28T12:59:39.353Z,31.85
2022-09-28T13:02:37.733Z,30.75
2022-09-28T13:05:24.562Z,30.33
2022-09-28T13:08:24.690Z,33.08
2022-09-28T13:11:08.034Z,30.52
2022-09-28T13:13:41.506Z,31.02
2022-09-28T13:16:17.696Z,31.02
2022-09-28T13:19:20.791Z,30.40
2022-09-28T13:21:59.440Z,33.42
2022-09-28T13:24:33.138Z,34.95
2022-09-28T13:27:10.381Z,32.40
2022-09-28T13:32:12.800Z,34.53
2022-09-28T13:34:40.191Z,36.65
2022-09-28T13:37:25.492Z,38.25
2022-09-28T13:40:00.196Z,34.47
2022-09-28T13:42:46.175Z,34.65
2022-09-28T13:45:22.861Z,35.47
2022-09-28T13:47:56.418Z,37.00
2022-09-28T13:50:27.690Z,39.40
2022-09-28T13:53:02.150Z,38.42
2022-09-28T13:55:48.202Z,41.72
2022-09-28T13:58:38.680Z,38.15
2022-09-28T14:01:10.647Z,41.45
2022-09-28T14:03:55.325Z,40.97
2022-09-28T14:06:33.140Z,43.55
2022-09-28T14:09:13.171Z,39.08
2022-09-28T14:11:42.563Z,42.10
2022-09-28T14:14:14.334Z,40.03
2022-09-28T14:16:42.380Z,41.72
2022-09-28T14:19:24.628Z,39.28
2022-09-28T14:21:58.322Z,38.45
2022-09-28T14:24:34.558Z,35.38
2022-09-28T14:27:27.240Z,36.60
2022-09-28T14:30:07.139Z,40.30
2022-09-28T14:32:36.552Z,36.30
2022-09-28T14:35:18.766Z,35.72
2022-09-28T14:38:07.795Z,39.60
2022-09-28T14:41:09.986Z,37.70
2022-09-28T14:43:58.729Z,41.65
2022-09-28T14:46:29.590Z,41.88
2022-09-28T14:48:57.709Z,39.45
2022-09-28T14:51:24.886Z,45.20
2022-09-28T14:54:05.797Z,41.75
2022-09-28T14:56:53.642Z,42.75
2022-09-28T14:59:30.739Z,45.35
2022-09-28T15:02:11.113Z,38.88
2022-09-28T15:04:43.963Z,49.83
2022-09-28T15:07:23.912Z,43.00
2022-09-28T15:09:54.241Z,45.55
2022-09-28T15:12:28.949Z,48.70
2022-09-28T15:15:07.070Z,46.08
2022-09-28T15:17:39.725Z,44.63
2022-09-28T15:20:30.051Z,44.08
2022-09-28T15:22:59.608Z,45.65
2022-09-28T15:25:29.991Z,49.60
2022-09-28T15:28:03.529Z,55.05
2022-09-28T15:30:36.636Z,42.45
2022-09-28T15:33:23.801Z,64.28
2022-09-28T15:36:15.231Z,43.28
2022-09-28T15:38:43.296Z,44.10
2022-09-28T15:41:11.257Z,47.75
2022-09-28T15:43:41.519Z,47.60
2022-09-28T15:46:21.168Z,47.25
2022-09-28T15:48:55.497Z,46.45
2022-09-28T15:51:25.950Z,46.67
2022-09-28T15:54:03.049Z,45.17
2022-09-28T15:56:31.172Z,47.53
2022-09-28T15:59:15.316Z,47.95
2022-09-28T16:01:43.771Z,48.97
2022-09-28T16:04:37.388Z,48.75
2022-09-28T16:07:17.825Z,56.80
2022-09-28T16:10:04.153Z,47.92
2022-09-28T16:12:42.036Z,53.42
2022-09-28T16:15:20.480Z,45.90
2022-09-28T16:17:54.444Z,48.83
2022-09-28T16:20:27.753Z,52.42
2022-09-28T16:23:05.938Z,55.55
2022-09-28T16:25:37.703Z,49.10
2022-09-28T16:28:05.985Z,48.83
2022-09-28T16:30:34.699Z,54.58
2022-09-28T16:33:11.301Z,47.95
2022-09-28T16:35:43.632Z,49.75
2022-09-28T16:38:12.379Z,43.60
2022-09-28T16:40:46.399Z,49.95
2022-09-28T16:43:27.002Z,46.47
2022-09-28T16:45:59.736Z,52.55
2022-09-28T16:48:29.216Z,56.53
2022-09-28T16:50:57.199Z,51.22
2022-09-28T16:53:43.096Z,58.25
2022-09-28T16:56:11.272Z,54.03
2022-09-28T16:58:39.264Z,66.43
2022-09-28T17:01:10.131Z,57.40
2022-09-28T17:03:37.681Z,53.53
2022-09-28T17:06:06.387Z,41.20
2022-09-28T17:08:36.155Z,35.45
2022-09-28T17:11:24.706Z,35.90
2022-09-28T17:13:59.082Z,37.20
2022-09-28T17:16:59.937Z,41.72
2022-09-28T17:19:23.247Z,31.30
2022-09-28T17:21:51.802Z,32.45
2022-09-28T17:24:19.544Z,29.98
2022-09-28T17:26:49.061Z,26.73
2022-09-28T17:29:22.336Z,26.45
2022-09-28T17:31:50.318Z,27.65
2022-09-28T17:34:17.931Z,28.40
2022-09-28T17:36:45.433Z,28.38
2022-09-28T17:39:14.439Z,27.95
2022-09-28T17:41:42.099Z,26.65
2022-09-28T17:44:09.651Z,27.58
2022-09-28T17:46:39.617Z,27.05
2022-09-28T17:49:07.949Z,26.20
2022-09-28T17:51:37.687Z,26.73
2022-09-28T17:54:06.169Z,24.73
2022-09-28T17:56:34.133Z,23.27
2022-09-28T17:59:07.131Z,26.23
2022-09-28T18:01:35.061Z,25.58
2022-09-28T18:04:05.083Z,23.55
2022-09-28T18:06:33.845Z,25.25
2022-09-28T18:09:05.021Z,23.75
2022-09-28T18:11:33.311Z,24.85
2022-09-28T18:14:00.863Z,23.00
2022-09-28T18:16:28.969Z,23.75
2022-09-28T18:18:58.327Z,22.75
2022-09-28T18:21:25.631Z,23.55
2022-09-28T18:23:52.848Z,24.48
2022-09-28T18:26:20.146Z,25.20
2022-09-28T18:28:47.545Z,25.23
2022-09-28T18:31:15.981Z,24.58
2022-09-28T18:33:43.499Z,24.30
2022-09-28T18:36:10.960Z,24.33
2022-09-28T18:38:47.941Z,25.77
2022-09-28T18:41:16.148Z,24.23
2022-09-28T18:43:49.199Z,23.23
2022-09-28T18:46:18.372Z,22.92
2022-09-28T18:48:47.917Z,24.17
2022-09-28T18:51:15.211Z,24.70
2022-09-28T18:53:43.438Z,23.38
2022-09-28T18:56:13.088Z,21.25
2022-09-28T18:58:41.817Z,19.75
2022-09-28T19:04:00.717Z,20.27
2022-09-28T19:06:28.330Z,22.00
2022-09-28T19:08:56.443Z,21.05
2022-09-28T19:11:24.936Z,24.52
2022-09-28T19:13:53.780Z,21.30
2022-09-28T19:16:25.591Z,21.73
2022-09-28T19:18:53.722Z,20.27
2022-09-28T19:21:21.372Z,23.60
2022-09-28T19:23:49.710Z,22.52
2022-09-28T19:26:22.539Z,21.17
2022-09-28T19:28:50.383Z,23.63
2022-09-28T19:31:17.940Z,23.30
2022-09-28T19:33:46.444Z,22.52
2022-09-28T19:36:19.457Z,23.70
2022-09-28T19:38:46.786Z,23.13
2022-09-28T19:41:39.184Z,24.60
2022-09-28T19:44:27.447Z,23.40
2022-09-28T19:47:10.211Z,23.77
2022-09-28T19:49:39.987Z,24.27
2022-09-28T19:52:13.785Z,24.88
2022-09-28T19:54:44.566Z,26.90
2022-09-28T19:57:13.454Z,26.15
2022-09-28T19:59:40.860Z,24.58
2022-09-28T20:02:10.467Z,27.35
2022-09-28T20:04:40.649Z,24.48
2022-09-28T20:07:08.048Z,22.92
2022-09-28T20:09:38.269Z,20.45
2022-09-28T20:12:06.078Z,24.25
2022-09-28T20:14:37.982Z,23.67
2022-09-28T20:17:07.254Z,22.48
2022-09-28T20:19:35.080Z,25.17
2022-09-28T20:22:02.836Z,26.67
2022-09-28T20:24:31.349Z,23.95
2022-09-28T20:26:58.948Z,25.73
2022-09-28T20:29:26.834Z,23.33
2022-09-28T20:31:54.205Z,23.25
2022-09-28T20:34:21.522Z,23.65
2022-09-28T20:36:48.671Z,20.65
2022-09-28T20:39:16.292Z,21.95
2022-09-28T20:41:43.849Z,22.48
2022-09-28T20:44:11.143Z,23.40
2022-09-28T20:46:38.416Z,21.52
2022-09-28T20:49:07.099Z,22.02
2022-09-28T20:51:34.503Z,22.02
2022-09-28T20:54:01.696Z,22.92
2022-09-28T20:56:37.797Z,26.45
2022-09-28T20:59:10.802Z,25.98
2022-09-28T21:01:38.798Z,26.80
2022-09-28T21:04:08.170Z,22.33
2022-09-28T21:06:38.435Z,24.05
2022-09-28T21:09:06.842Z,23.60
2022-09-28T21:11:35.707Z,23.40
2022-09-28T21:14:06.615Z,23.90
2022-09-28T21:16:35.570Z,24.30
2022-09-28T21:19:03.718Z,24.80
2022-09-28T21:21:31.458Z,25.83
2022-09-28T21:23:58.949Z,27.60
2022-09-28T21:26:28.441Z,27.75
2022-09-28T21:29:06.327Z,26.38
2022-09-28T21:31:41.501Z,29.20
2022-09-28T21:34:13.496Z,29.52
2022-09-28T21:36:43.553Z,33.28
2022-09-28T21:39:11.165Z,32.25
2022-09-28T21:41:38.408Z,35.75
2022-09-28T21:44:06.942Z,38.95
2022-09-28T21:46:35.484Z,39.30
2022-09-28T21:49:04.721Z,42.95
2022-09-28T21:51:32.891Z,39.90
2022-09-28T21:54:00.038Z,43.55
2022-09-28T21:56:27.877Z,43.28
2022-09-28T21:58:55.351Z,43.38
2022-09-28T22:01:25.750Z,53.53
2022-09-28T22:03:56.205Z,53.28
2022-09-28T22:06:27.997Z,73.10
2022-09-28T22:08:55.539Z,44.15
2022-09-28T22:11:24.468Z,41.97
2022-09-28T22:13:55.029Z,38.63
2022-09-28T22:16:24.009Z,41.83
2022-09-28T22:18:53.557Z,37.78
2022-09-28T22:21:23.899Z,39.17
2022-09-28T22:23:51.512Z,40.95
2022-09-28T22:26:24.799Z,39.00
2022-09-28T22:28:56.853Z,40.83
2022-09-28T22:31:27.247Z,38.55
2022-09-28T22:33:55.020Z,36.08
2022-09-28T22:36:22.560Z,36.25
2022-09-28T22:38:50.371Z,42.38
2022-09-28T22:41:20.934Z,76.03
2022-09-28T22:43:49.900Z,42.30
2022-09-28T22:46:19.837Z,44.75
2022-09-28T22:48:49.188Z,36.10
2022-09-28T22:51:16.992Z,43.38
2022-09-28T22:53:44.305Z,39.92
2022-09-28T22:56:18.442Z,44.35
2022-09-28T22:58:47.250Z,41.97
2022-09-28T23:01:15.599Z,38.67
2022-09-28T23:03:44.859Z,39.15
2022-09-28T23:06:14.997Z,38.17
2022-09-28T23:08:44.503Z,40.53
2022-09-28T23:11:12.086Z,36.80
2022-09-28T23:13:39.789Z,40.13
2022-09-28T23:16:09.199Z,32.45
2022-09-28T23:18:38.515Z,37.08
2022-09-28T23:21:07.867Z,40.42
2022-09-28T23:23:35.383Z,38.00
2022-09-28T23:26:27.064Z,36.90
2022-09-28T23:28:54.640Z,34.15
2022-09-28T23:31:24.333Z,41.15
2022-09-28T23:33:52.372Z,32.55
2022-09-28T23:36:20.589Z,42.15
2022-09-28T23:38:47.975Z,36.08
2022-09-28T23:41:17.280Z,39.85
2022-09-28T23:43:45.183Z,93.05
2022-09-28T23:46:14.490Z,106.40
2022-09-28T23:48:43.428Z,34.65
2022-09-28T23:51:10.674Z,39.47
2022-09-28T23:53:38.290Z,43.33
2022-09-28T23:56:05.801Z,39.17
2022-09-28T23:58:33.073Z,37.70
